sensor_id;sensor_type;location;lat;lon;timestamp;temperature;humidity
8792;DHT22;4432;50.890;4.744;2022-10-22T00:01:43;14.60;99.90
8792;DHT22;4432;50.890;4.744;2022-10-22T00:04:10;14.50;99.90
8792;DHT22;4432;50.890;4.744;2022-10-22T00:06:35;14.40;99.90
8792;DHT22;4432;50.890;4.744;2022-10-22T00:09:01;14.40;99.90
8792;DHT22;4432;50.890;4.744;2022-10-22T00:11:27;14.50;99.90
8792;DHT22;4432;50.890;4.744;2022-10-22T00:13:52;14.50;99.90
8792;DHT22;4432;50.890;4.744;2022-10-22T00:16:18;14.40;99.90
8792;DHT22;4432;50.890;4.744;2022-10-22T00:18:44;14.50;99.90
8792;DHT22;4432;50.890;4.744;2022-10-22T00:21:09;14.40;99.90
8792;DHT22;4432;50.890;4.744;2022-10-22T00:23:39;14.40;99.90
8792;DHT22;4432;50.890;4.744;2022-10-22T00:26:05;14.40;99.90
8792;DHT22;4432;50.890;4.744;2022-10-22T00:28:31;14.40;99.90
8792;DHT22;4432;50.890;4.744;2022-10-22T00:31:00;14.30;99.90
8792;DHT22;4432;50.890;4.744;2022-10-22T00:33:27;14.40;99.90
8792;DHT22;4432;50.890;4.744;2022-10-22T00:35:53;14.50;99.90
8792;DHT22;4432;50.890;4.744;2022-10-22T00:38:19;14.40;99.90
8792;DHT22;4432;50.890;4.744;2022-10-22T00:40:45;14.40;99.90
8792;DHT22;4432;50.890;4.744;2022-10-22T00:43:12;14.40;99.90
8792;DHT22;4432;50.890;4.744;2022-10-22T00:45:38;14.50;99.90
8792;DHT22;4432;50.890;4.744;2022-10-22T00:48:07;14.60;99.90
8792;DHT22;4432;50.890;4.744;2022-10-22T00:53:23;14.70;99.90
8792;DHT22;4432;50.890;4.744;2022-10-22T00:55:51;14.60;99.90
8792;DHT22;4432;50.890;4.744;2022-10-22T00:58:19;14.50;99.90
8792;DHT22;4432;50.890;4.744;2022-10-22T01:00:46;14.40;99.90
8792;DHT22;4432;50.890;4.744;2022-10-22T01:03:13;14.40;99.90
8792;DHT22;4432;50.890;4.744;2022-10-22T01:05:42;14.30;99.90
8792;DHT22;4432;50.890;4.744;2022-10-22T01:08:21;14.30;99.90
8792;DHT22;4432;50.890;4.744;2022-10-22T01:17:07;14.20;99.90
8792;DHT22;4432;50.890;4.744;2022-10-22T01:19:56;14.20;99.90
8792;DHT22;4432;50.890;4.744;2022-10-22T01:22:39;14.30;99.90
8792;DHT22;4432;50.890;4.744;2022-10-22T01:30:09;14.50;99.90
8792;DHT22;4432;50.890;4.744;2022-10-22T01:32:40;14.50;99.90
8792;DHT22;4432;50.890;4.744;2022-10-22T01:35:10;14.60;99.90
8792;DHT22;4432;50.890;4.744;2022-10-22T01:37:45;14.60;99.90
8792;DHT22;4432;50.890;4.744;2022-10-22T01:40:14;14.50;99.90
8792;DHT22;4432;50.890;4.744;2022-10-22T01:42:40;14.50;99.90
8792;DHT22;4432;50.890;4.744;2022-10-22T01:45:13;14.50;99.90
8792;DHT22;4432;50.890;4.744;2022-10-22T01:48:13;14.60;99.90
8792;DHT22;4432;50.890;4.744;2022-10-22T01:53:40;14.60;99.90
8792;DHT22;4432;50.890;4.744;2022-10-22T01:56:21;14.60;99.90
8792;DHT22;4432;50.890;4.744;2022-10-22T02:04:19;14.50;99.90
8792;DHT22;4432;50.890;4.744;2022-10-22T02:06:46;14.40;99.90
8792;DHT22;4432;50.890;4.744;2022-10-22T02:09:16;14.50;99.90
8792;DHT22;4432;50.890;4.744;2022-10-22T02:11:45;14.40;99.90
8792;DHT22;4432;50.890;4.744;2022-10-22T02:14:13;14.40;99.90
8792;DHT22;4432;50.890;4.744;2022-10-22T02:16:42;14.40;99.90
8792;DHT22;4432;50.890;4.744;2022-10-22T02:21:46;14.40;99.90
8792;DHT22;4432;50.890;4.744;2022-10-22T02:24:12;14.50;99.90
8792;DHT22;4432;50.890;4.744;2022-10-22T02:26:43;14.40;99.90
8792;DHT22;4432;50.890;4.744;2022-10-22T02:29:17;14.50;99.90
8792;DHT22;4432;50.890;4.744;2022-10-22T02:31:46;14.30;99.90
8792;DHT22;4432;50.890;4.744;2022-10-22T02:34:16;14.30;99.90
8792;DHT22;4432;50.890;4.744;2022-10-22T02:36:44;14.40;99.90
8792;DHT22;4432;50.890;4.744;2022-10-22T02:39:12;14.30;99.90
8792;DHT22;4432;50.890;4.744;2022-10-22T02:41:39;14.20;99.90
8792;DHT22;4432;50.890;4.744;2022-10-22T02:44:08;14.20;99.90
8792;DHT22;4432;50.890;4.744;2022-10-22T02:46:34;14.30;99.90
8792;DHT22;4432;50.890;4.744;2022-10-22T02:49:00;14.30;99.90
8792;DHT22;4432;50.890;4.744;2022-10-22T02:51:26;14.20;99.90
8792;DHT22;4432;50.890;4.744;2022-10-22T02:53:51;14.20;99.90
8792;DHT22;4432;50.890;4.744;2022-10-22T02:56:17;14.20;99.90
8792;DHT22;4432;50.890;4.744;2022-10-22T02:58:43;14.20;99.90
8792;DHT22;4432;50.890;4.744;2022-10-22T03:01:08;14.20;99.90
8792;DHT22;4432;50.890;4.744;2022-10-22T03:03:34;14.10;99.90
8792;DHT22;4432;50.890;4.744;2022-10-22T03:06:00;14.10;99.90
8792;DHT22;4432;50.890;4.744;2022-10-22T03:08:25;14.00;99.90
8792;DHT22;4432;50.890;4.744;2022-10-22T03:10:51;14.00;99.90
8792;DHT22;4432;50.890;4.744;2022-10-22T03:13:17;14.10;99.90
8792;DHT22;4432;50.890;4.744;2022-10-22T03:15:43;14.00;99.90
8792;DHT22;4432;50.890;4.744;2022-10-22T03:18:08;13.90;99.90
8792;DHT22;4432;50.890;4.744;2022-10-22T03:20:34;14.10;99.90
8792;DHT22;4432;50.890;4.744;2022-10-22T03:23:01;14.10;99.90
8792;DHT22;4432;50.890;4.744;2022-10-22T03:25:27;14.00;99.90
8792;DHT22;4432;50.890;4.744;2022-10-22T03:27:56;14.10;99.90
8792;DHT22;4432;50.890;4.744;2022-10-22T03:30:26;13.90;99.90
8792;DHT22;4432;50.890;4.744;2022-10-22T03:32:52;13.90;99.90
8792;DHT22;4432;50.890;4.744;2022-10-22T03:35:17;13.90;99.90
8792;DHT22;4432;50.890;4.744;2022-10-22T03:37:43;14.00;99.90
8792;DHT22;4432;50.890;4.744;2022-10-22T03:40:09;13.90;99.90
8792;DHT22;4432;50.890;4.744;2022-10-22T03:42:36;13.90;99.90
8792;DHT22;4432;50.890;4.744;2022-10-22T03:45:01;14.00;99.90
8792;DHT22;4432;50.890;4.744;2022-10-22T03:47:27;13.90;99.90
8792;DHT22;4432;50.890;4.744;2022-10-22T03:49:53;14.00;99.90
8792;DHT22;4432;50.890;4.744;2022-10-22T03:52:18;13.90;99.90
8792;DHT22;4432;50.890;4.744;2022-10-22T03:54:44;14.00;99.90
8792;DHT22;4432;50.890;4.744;2022-10-22T03:57:10;14.10;99.90
8792;DHT22;4432;50.890;4.744;2022-10-22T03:59:38;14.10;99.90
8792;DHT22;4432;50.890;4.744;2022-10-22T04:02:04;14.10;99.90
8792;DHT22;4432;50.890;4.744;2022-10-22T04:04:30;14.10;99.90
8792;DHT22;4432;50.890;4.744;2022-10-22T04:06:56;14.20;99.90
8792;DHT22;4432;50.890;4.744;2022-10-22T04:09:22;14.20;99.90
8792;DHT22;4432;50.890;4.744;2022-10-22T04:11:48;14.30;99.90
8792;DHT22;4432;50.890;4.744;2022-10-22T04:14:13;14.30;99.90
8792;DHT22;4432;50.890;4.744;2022-10-22T04:16:40;14.30;99.90
8792;DHT22;4432;50.890;4.744;2022-10-22T04:19:06;14.30;99.90
8792;DHT22;4432;50.890;4.744;2022-10-22T04:21:31;14.40;99.90
8792;DHT22;4432;50.890;4.744;2022-10-22T04:23:58;14.40;99.90
8792;DHT22;4432;50.890;4.744;2022-10-22T04:26:23;14.40;99.90
8792;DHT22;4432;50.890;4.744;2022-10-22T04:28:50;14.60;99.90
8792;DHT22;4432;50.890;4.744;2022-10-22T04:31:19;14.60;99.90
8792;DHT22;4432;50.890;4.744;2022-10-22T04:33:45;14.70;99.90
8792;DHT22;4432;50.890;4.744;2022-10-22T04:36:16;14.70;99.90
8792;DHT22;4432;50.890;4.744;2022-10-22T04:38:43;14.70;99.90
8792;DHT22;4432;50.890;4.744;2022-10-22T04:41:18;14.60;99.90
8792;DHT22;4432;50.890;4.744;2022-10-22T04:43:45;14.50;99.90
8792;DHT22;4432;50.890;4.744;2022-10-22T04:46:11;14.50;99.90
8792;DHT22;4432;50.890;4.744;2022-10-22T04:48:39;14.40;99.90
8792;DHT22;4432;50.890;4.744;2022-10-22T04:51:06;14.30;99.90
8792;DHT22;4432;50.890;4.744;2022-10-22T04:53:33;14.30;99.90
8792;DHT22;4432;50.890;4.744;2022-10-22T04:56:15;14.30;99.90
8792;DHT22;4432;50.890;4.744;2022-10-22T04:58:44;14.20;99.90
8792;DHT22;4432;50.890;4.744;2022-10-22T05:01:30;14.20;99.90
8792;DHT22;4432;50.890;4.744;2022-10-22T05:03:59;14.10;99.90
8792;DHT22;4432;50.890;4.744;2022-10-22T05:06:25;14.10;99.90
8792;DHT22;4432;50.890;4.744;2022-10-22T05:08:54;14.00;99.90
8792;DHT22;4432;50.890;4.744;2022-10-22T05:11:22;14.00;99.90
8792;DHT22;4432;50.890;4.744;2022-10-22T05:13:49;14.20;99.90
8792;DHT22;4432;50.890;4.744;2022-10-22T05:16:15;14.20;99.90
8792;DHT22;4432;50.890;4.744;2022-10-22T05:18:42;14.20;99.90
8792;DHT22;4432;50.890;4.744;2022-10-22T05:21:15;14.30;99.90
8792;DHT22;4432;50.890;4.744;2022-10-22T05:23:41;14.40;99.90
8792;DHT22;4432;50.890;4.744;2022-10-22T05:26:09;14.50;99.90
8792;DHT22;4432;50.890;4.744;2022-10-22T05:28:35;14.50;99.90
8792;DHT22;4432;50.890;4.744;2022-10-22T05:31:02;14.60;99.90
8792;DHT22;4432;50.890;4.744;2022-10-22T05:33:29;14.60;99.90
8792;DHT22;4432;50.890;4.744;2022-10-22T05:35:55;14.60;99.90
8792;DHT22;4432;50.890;4.744;2022-10-22T05:38:21;14.60;99.90
8792;DHT22;4432;50.890;4.744;2022-10-22T05:40:47;14.60;99.90
8792;DHT22;4432;50.890;4.744;2022-10-22T05:43:13;14.60;99.90
8792;DHT22;4432;50.890;4.744;2022-10-22T05:45:39;14.50;99.90
8792;DHT22;4432;50.890;4.744;2022-10-22T05:48:06;14.40;99.90
8792;DHT22;4432;50.890;4.744;2022-10-22T05:50:35;14.50;99.90
8792;DHT22;4432;50.890;4.744;2022-10-22T05:53:02;14.50;99.90
8792;DHT22;4432;50.890;4.744;2022-10-22T05:55:28;14.50;99.90
8792;DHT22;4432;50.890;4.744;2022-10-22T05:57:53;14.50;99.90
8792;DHT22;4432;50.890;4.744;2022-10-22T06:00:19;14.50;99.90
8792;DHT22;4432;50.890;4.744;2022-10-22T06:02:48;14.60;99.90
8792;DHT22;4432;50.890;4.744;2022-10-22T06:05:14;14.60;99.90
8792;DHT22;4432;50.890;4.744;2022-10-22T06:07:41;14.60;99.90
8792;DHT22;4432;50.890;4.744;2022-10-22T06:10:12;14.60;99.90
8792;DHT22;4432;50.890;4.744;2022-10-22T06:12:38;14.70;99.90
8792;DHT22;4432;50.890;4.744;2022-10-22T06:15:05;14.70;99.90
8792;DHT22;4432;50.890;4.744;2022-10-22T06:17:30;14.70;99.90
8792;DHT22;4432;50.890;4.744;2022-10-22T06:19:56;14.70;99.90
8792;DHT22;4432;50.890;4.744;2022-10-22T06:22:22;14.70;99.90
8792;DHT22;4432;50.890;4.744;2022-10-22T06:24:47;14.70;99.90
8792;DHT22;4432;50.890;4.744;2022-10-22T06:27:13;14.70;99.90
8792;DHT22;4432;50.890;4.744;2022-10-22T06:29:39;14.70;99.90
8792;DHT22;4432;50.890;4.744;2022-10-22T06:32:04;14.70;99.90
8792;DHT22;4432;50.890;4.744;2022-10-22T06:34:30;14.70;99.90
8792;DHT22;4432;50.890;4.744;2022-10-22T06:36:56;14.80;99.90
8792;DHT22;4432;50.890;4.744;2022-10-22T06:39:22;14.80;99.90
8792;DHT22;4432;50.890;4.744;2022-10-22T06:41:47;14.90;99.90
8792;DHT22;4432;50.890;4.744;2022-10-22T06:44:16;14.90;99.90
8792;DHT22;4432;50.890;4.744;2022-10-22T06:46:42;15.00;99.90
8792;DHT22;4432;50.890;4.744;2022-10-22T06:49:12;15.00;99.90
8792;DHT22;4432;50.890;4.744;2022-10-22T06:51:38;15.10;99.90
8792;DHT22;4432;50.890;4.744;2022-10-22T06:54:04;15.10;99.90
8792;DHT22;4432;50.890;4.744;2022-10-22T06:56:29;15.10;99.90
8792;DHT22;4432;50.890;4.744;2022-10-22T06:58:57;15.10;99.90
8792;DHT22;4432;50.890;4.744;2022-10-22T07:01:25;15.10;99.90
8792;DHT22;4432;50.890;4.744;2022-10-22T07:03:52;15.20;99.90
8792;DHT22;4432;50.890;4.744;2022-10-22T07:06:19;15.20;99.90
8792;DHT22;4432;50.890;4.744;2022-10-22T07:08:45;15.30;99.90
8792;DHT22;4432;50.890;4.744;2022-10-22T07:11:16;15.30;99.90
8792;DHT22;4432;50.890;4.744;2022-10-22T07:13:43;15.30;99.90
8792;DHT22;4432;50.890;4.744;2022-10-22T07:16:10;15.40;99.90
8792;DHT22;4432;50.890;4.744;2022-10-22T07:18:37;15.60;99.90
8792;DHT22;4432;50.890;4.744;2022-10-22T07:21:05;15.70;99.90
8792;DHT22;4432;50.890;4.744;2022-10-22T07:23:31;15.80;99.90
8792;DHT22;4432;50.890;4.744;2022-10-22T07:25:57;15.90;99.90
8792;DHT22;4432;50.890;4.744;2022-10-22T07:28:23;16.00;99.90
8792;DHT22;4432;50.890;4.744;2022-10-22T07:30:49;16.20;99.90
8792;DHT22;4432;50.890;4.744;2022-10-22T07:33:15;16.70;99.90
8792;DHT22;4432;50.890;4.744;2022-10-22T07:35:42;16.90;99.90
8792;DHT22;4432;50.890;4.744;2022-10-22T07:38:08;16.90;99.90
8792;DHT22;4432;50.890;4.744;2022-10-22T07:40:34;16.70;99.90
8792;DHT22;4432;50.890;4.744;2022-10-22T07:43:00;16.70;99.90
8792;DHT22;4432;50.890;4.744;2022-10-22T07:45:26;16.60;99.90
8792;DHT22;4432;50.890;4.744;2022-10-22T07:47:52;16.60;99.90
8792;DHT22;4432;50.890;4.744;2022-10-22T07:50:18;16.60;99.90
8792;DHT22;4432;50.890;4.744;2022-10-22T07:52:44;16.60;99.90
8792;DHT22;4432;50.890;4.744;2022-10-22T07:55:09;16.60;99.90
8792;DHT22;4432;50.890;4.744;2022-10-22T07:57:35;16.50;99.90
8792;DHT22;4432;50.890;4.744;2022-10-22T08:00:04;16.50;99.90
8792;DHT22;4432;50.890;4.744;2022-10-22T08:02:30;16.60;99.90
8792;DHT22;4432;50.890;4.744;2022-10-22T08:04:56;16.70;99.90
8792;DHT22;4432;50.890;4.744;2022-10-22T08:07:22;16.80;99.90
8792;DHT22;4432;50.890;4.744;2022-10-22T08:09:48;16.90;99.90
8792;DHT22;4432;50.890;4.744;2022-10-22T08:12:14;16.80;99.90
8792;DHT22;4432;50.890;4.744;2022-10-22T08:14:40;16.90;99.90
8792;DHT22;4432;50.890;4.744;2022-10-22T08:17:05;16.80;99.90
8792;DHT22;4432;50.890;4.744;2022-10-22T08:19:31;16.70;99.90
8792;DHT22;4432;50.890;4.744;2022-10-22T08:21:58;16.80;99.90
8792;DHT22;4432;50.890;4.744;2022-10-22T08:24:24;16.80;99.90
8792;DHT22;4432;50.890;4.744;2022-10-22T08:26:52;17.00;99.90
8792;DHT22;4432;50.890;4.744;2022-10-22T08:29:19;17.10;99.90
8792;DHT22;4432;50.890;4.744;2022-10-22T08:31:47;17.10;99.90
8792;DHT22;4432;50.890;4.744;2022-10-22T08:34:13;17.20;99.90
8792;DHT22;4432;50.890;4.744;2022-10-22T08:36:39;17.40;99.90
8792;DHT22;4432;50.890;4.744;2022-10-22T08:39:05;17.50;99.90
8792;DHT22;4432;50.890;4.744;2022-10-22T08:41:39;17.50;99.90
8792;DHT22;4432;50.890;4.744;2022-10-22T08:46:51;17.50;99.90
8792;DHT22;4432;50.890;4.744;2022-10-22T08:49:25;17.60;99.90
8792;DHT22;4432;50.890;4.744;2022-10-22T08:51:54;17.50;99.90
8792;DHT22;4432;50.890;4.744;2022-10-22T08:54:41;17.50;99.90
8792;DHT22;4432;50.890;4.744;2022-10-22T09:00:27;17.30;99.90
8792;DHT22;4432;50.890;4.744;2022-10-22T09:08:16;17.50;99.90
8792;DHT22;4432;50.890;4.744;2022-10-22T09:10:51;17.60;99.90
8792;DHT22;4432;50.890;4.744;2022-10-22T09:13:19;17.60;99.90
8792;DHT22;4432;50.890;4.744;2022-10-22T09:15:54;17.70;99.90
8792;DHT22;4432;50.890;4.744;2022-10-22T09:18:32;17.70;99.90
8792;DHT22;4432;50.890;4.744;2022-10-22T09:21:13;17.70;99.90
8792;DHT22;4432;50.890;4.744;2022-10-22T09:24:34;17.70;99.90
8792;DHT22;4432;50.890;4.744;2022-10-22T09:27:13;17.70;99.90
8792;DHT22;4432;50.890;4.744;2022-10-22T09:29:40;17.80;99.90
8792;DHT22;4432;50.890;4.744;2022-10-22T09:32:06;17.90;99.90
8792;DHT22;4432;50.890;4.744;2022-10-22T09:34:32;18.00;99.90
8792;DHT22;4432;50.890;4.744;2022-10-22T09:37:07;18.10;99.90
8792;DHT22;4432;50.890;4.744;2022-10-22T09:39:40;18.30;99.90
8792;DHT22;4432;50.890;4.744;2022-10-22T09:42:07;18.40;99.90
8792;DHT22;4432;50.890;4.744;2022-10-22T09:44:34;18.50;99.90
8792;DHT22;4432;50.890;4.744;2022-10-22T09:47:36;18.50;99.90
8792;DHT22;4432;50.890;4.744;2022-10-22T09:53:43;18.50;99.90
8792;DHT22;4432;50.890;4.744;2022-10-22T09:55:55;18.50;99.90
8792;DHT22;4432;50.890;4.744;2022-10-22T09:58:21;18.40;99.90
8792;DHT22;4432;50.890;4.744;2022-10-22T10:00:57;18.50;99.90
8792;DHT22;4432;50.890;4.744;2022-10-22T10:03:28;18.60;99.90
8792;DHT22;4432;50.890;4.744;2022-10-22T10:05:58;18.70;99.90
8792;DHT22;4432;50.890;4.744;2022-10-22T10:08:25;19.00;99.90
8792;DHT22;4432;50.890;4.744;2022-10-22T10:11:10;18.90;99.90
8792;DHT22;4432;50.890;4.744;2022-10-22T10:14:04;18.60;99.90
8792;DHT22;4432;50.890;4.744;2022-10-22T10:16:44;18.60;99.90
8792;DHT22;4432;50.890;4.744;2022-10-22T10:27:43;18.50;99.90
8792;DHT22;4432;50.890;4.744;2022-10-22T10:30:19;18.80;99.90
8792;DHT22;4432;50.890;4.744;2022-10-22T10:39:17;19.60;99.90
8792;DHT22;4432;50.890;4.744;2022-10-22T10:42:00;19.20;99.90
8792;DHT22;4432;50.890;4.744;2022-10-22T10:47:51;19.30;99.90
8792;DHT22;4432;50.890;4.744;2022-10-22T10:50:32;19.60;99.90
8792;DHT22;4432;50.890;4.744;2022-10-22T10:53:13;19.60;99.90
8792;DHT22;4432;50.890;4.744;2022-10-22T10:55:56;19.40;99.90
8792;DHT22;4432;50.890;4.744;2022-10-22T10:59:06;19.50;99.90
8792;DHT22;4432;50.890;4.744;2022-10-22T11:07:21;19.60;99.90
8792;DHT22;4432;50.890;4.744;2022-10-22T11:09:57;19.40;99.90
8792;DHT22;4432;50.890;4.744;2022-10-22T11:12:27;19.50;99.90
8792;DHT22;4432;50.890;4.744;2022-10-22T11:17:29;19.30;99.90
8792;DHT22;4432;50.890;4.744;2022-10-22T11:20:11;19.10;99.90
8792;DHT22;4432;50.890;4.744;2022-10-22T11:22:42;18.80;99.90
8792;DHT22;4432;50.890;4.744;2022-10-22T11:25:23;18.70;99.90
8792;DHT22;4432;50.890;4.744;2022-10-22T11:27:55;18.80;99.90
8792;DHT22;4432;50.890;4.744;2022-10-22T11:30:23;19.00;99.90
8792;DHT22;4432;50.890;4.744;2022-10-22T11:32:56;19.10;99.90
8792;DHT22;4432;50.890;4.744;2022-10-22T11:35:27;19.40;99.90
8792;DHT22;4432;50.890;4.744;2022-10-22T11:37:56;19.30;99.90
8792;DHT22;4432;50.890;4.744;2022-10-22T11:42:56;19.60;99.90
8792;DHT22;4432;50.890;4.744;2022-10-22T11:53:16;20.40;99.90
8792;DHT22;4432;50.890;4.744;2022-10-22T11:55:46;20.40;99.90
8792;DHT22;4432;50.890;4.744;2022-10-22T12:00:50;21.10;99.90
8792;DHT22;4432;50.890;4.744;2022-10-22T12:03:36;20.80;99.90
8792;DHT22;4432;50.890;4.744;2022-10-22T12:06:21;20.40;99.90
8792;DHT22;4432;50.890;4.744;2022-10-22T12:19:36;20.90;99.90
8792;DHT22;4432;50.890;4.744;2022-10-22T12:24:34;20.50;99.90
8792;DHT22;4432;50.890;4.744;2022-10-22T12:27:01;20.20;99.90
8792;DHT22;4432;50.890;4.744;2022-10-22T12:29:30;20.40;99.90
8792;DHT22;4432;50.890;4.744;2022-10-22T12:32:02;20.90;99.90
8792;DHT22;4432;50.890;4.744;2022-10-22T12:34:28;20.90;99.90
8792;DHT22;4432;50.890;4.744;2022-10-22T12:36:54;21.00;99.90
8792;DHT22;4432;50.890;4.744;2022-10-22T12:39:29;20.80;99.90
8792;DHT22;4432;50.890;4.744;2022-10-22T12:41:57;20.40;99.90
8792;DHT22;4432;50.890;4.744;2022-10-22T12:44:23;20.00;99.90
8792;DHT22;4432;50.890;4.744;2022-10-22T12:46:49;19.90;99.90
8792;DHT22;4432;50.890;4.744;2022-10-22T12:49:30;19.70;99.90
8792;DHT22;4432;50.890;4.744;2022-10-22T12:52:02;19.60;99.90
8792;DHT22;4432;50.890;4.744;2022-10-22T12:54:31;19.60;99.90
8792;DHT22;4432;50.890;4.744;2022-10-22T12:57:00;19.60;99.90
8792;DHT22;4432;50.890;4.744;2022-10-22T12:59:26;19.60;99.90
8792;DHT22;4432;50.890;4.744;2022-10-22T13:01:54;19.60;99.90
8792;DHT22;4432;50.890;4.744;2022-10-22T13:04:31;19.60;99.90
8792;DHT22;4432;50.890;4.744;2022-10-22T13:09:41;19.70;99.90
8792;DHT22;4432;50.890;4.744;2022-10-22T13:12:09;19.60;99.90
8792;DHT22;4432;50.890;4.744;2022-10-22T13:14:44;19.50;99.90
8792;DHT22;4432;50.890;4.744;2022-10-22T13:22:35;19.60;99.90
8792;DHT22;4432;50.890;4.744;2022-10-22T13:27:49;20.20;99.90
8792;DHT22;4432;50.890;4.744;2022-10-22T13:30:22;20.20;99.90
8792;DHT22;4432;50.890;4.744;2022-10-22T13:32:50;20.40;99.90
8792;DHT22;4432;50.890;4.744;2022-10-22T13:35:20;20.50;99.90
8792;DHT22;4432;50.890;4.744;2022-10-22T13:37:48;20.30;99.90
8792;DHT22;4432;50.890;4.744;2022-10-22T13:40:14;20.20;99.90
8792;DHT22;4432;50.890;4.744;2022-10-22T13:42:40;20.00;99.90
8792;DHT22;4432;50.890;4.744;2022-10-22T13:45:06;19.70;99.90
8792;DHT22;4432;50.890;4.744;2022-10-22T13:47:32;19.60;99.90
8792;DHT22;4432;50.890;4.744;2022-10-22T13:50:03;19.40;99.90
8792;DHT22;4432;50.890;4.744;2022-10-22T13:52:38;19.50;99.90
8792;DHT22;4432;50.890;4.744;2022-10-22T13:55:13;19.70;99.90
8792;DHT22;4432;50.890;4.744;2022-10-22T13:57:39;20.00;99.90
8792;DHT22;4432;50.890;4.744;2022-10-22T14:00:05;20.20;99.90
8792;DHT22;4432;50.890;4.744;2022-10-22T14:02:31;20.30;99.90
8792;DHT22;4432;50.890;4.744;2022-10-22T14:04:57;20.30;99.90
8792;DHT22;4432;50.890;4.744;2022-10-22T14:07:27;20.30;99.90
8792;DHT22;4432;50.890;4.744;2022-10-22T14:09:53;20.20;99.90
8792;DHT22;4432;50.890;4.744;2022-10-22T14:12:19;20.20;99.90
8792;DHT22;4432;50.890;4.744;2022-10-22T14:14:45;20.00;99.90
8792;DHT22;4432;50.890;4.744;2022-10-22T14:17:15;20.10;99.90
8792;DHT22;4432;50.890;4.744;2022-10-22T14:19:43;20.20;99.90
8792;DHT22;4432;50.890;4.744;2022-10-22T14:22:26;20.40;99.90
8792;DHT22;4432;50.890;4.744;2022-10-22T14:24:52;20.60;99.90
8792;DHT22;4432;50.890;4.744;2022-10-22T14:27:18;20.80;99.90
8792;DHT22;4432;50.890;4.744;2022-10-22T14:29:44;20.60;99.90
8792;DHT22;4432;50.890;4.744;2022-10-22T14:32:15;20.60;99.90
8792;DHT22;4432;50.890;4.744;2022-10-22T14:34:41;20.50;99.90
8792;DHT22;4432;50.890;4.744;2022-10-22T14:37:18;20.20;99.90
8792;DHT22;4432;50.890;4.744;2022-10-22T14:39:44;20.00;99.90
8792;DHT22;4432;50.890;4.744;2022-10-22T14:42:18;19.90;99.90
8792;DHT22;4432;50.890;4.744;2022-10-22T14:44:45;19.80;99.90
8792;DHT22;4432;50.890;4.744;2022-10-22T14:47:11;19.70;99.90
8792;DHT22;4432;50.890;4.744;2022-10-22T14:49:36;19.70;99.90
8792;DHT22;4432;50.890;4.744;2022-10-22T14:52:02;19.50;99.90
8792;DHT22;4432;50.890;4.744;2022-10-22T14:54:28;19.40;99.90
8792;DHT22;4432;50.890;4.744;2022-10-22T14:56:53;19.40;99.90
8792;DHT22;4432;50.890;4.744;2022-10-22T14:59:19;19.30;99.90
8792;DHT22;4432;50.890;4.744;2022-10-22T15:01:45;19.30;99.90
8792;DHT22;4432;50.890;4.744;2022-10-22T15:04:11;19.30;99.90
8792;DHT22;4432;50.890;4.744;2022-10-22T15:06:36;19.40;99.90
8792;DHT22;4432;50.890;4.744;2022-10-22T15:09:02;19.50;99.90
8792;DHT22;4432;50.890;4.744;2022-10-22T15:11:28;19.50;99.90
8792;DHT22;4432;50.890;4.744;2022-10-22T15:13:54;19.40;99.90
8792;DHT22;4432;50.890;4.744;2022-10-22T15:16:20;19.30;99.90
8792;DHT22;4432;50.890;4.744;2022-10-22T15:18:46;19.20;99.90
8792;DHT22;4432;50.890;4.744;2022-10-22T15:21:17;19.10;99.90
8792;DHT22;4432;50.890;4.744;2022-10-22T15:23:43;19.10;99.90
8792;DHT22;4432;50.890;4.744;2022-10-22T15:26:11;19.10;99.90
8792;DHT22;4432;50.890;4.744;2022-10-22T15:28:38;19.10;99.90
8792;DHT22;4432;50.890;4.744;2022-10-22T15:31:05;19.20;99.90
8792;DHT22;4432;50.890;4.744;2022-10-22T15:33:31;19.20;99.90
8792;DHT22;4432;50.890;4.744;2022-10-22T15:35:57;19.10;99.90
8792;DHT22;4432;50.890;4.744;2022-10-22T15:38:27;19.00;99.90
8792;DHT22;4432;50.890;4.744;2022-10-22T15:41:05;19.00;99.90
8792;DHT22;4432;50.890;4.744;2022-10-22T15:43:32;19.00;99.90
8792;DHT22;4432;50.890;4.744;2022-10-22T15:46:17;18.90;99.90
8792;DHT22;4432;50.890;4.744;2022-10-22T15:48:48;18.80;99.90
8792;DHT22;4432;50.890;4.744;2022-10-22T15:51:16;18.80;99.90
8792;DHT22;4432;50.890;4.744;2022-10-22T15:53:43;18.70;99.90
8792;DHT22;4432;50.890;4.744;2022-10-22T15:56:09;18.70;99.90
8792;DHT22;4432;50.890;4.744;2022-10-22T15:58:36;18.60;99.90
8792;DHT22;4432;50.890;4.744;2022-10-22T16:01:07;18.60;99.90
8792;DHT22;4432;50.890;4.744;2022-10-22T16:03:33;18.60;99.90
8792;DHT22;4432;50.890;4.744;2022-10-22T16:05:59;18.50;99.90
8792;DHT22;4432;50.890;4.744;2022-10-22T16:08:25;18.40;99.90
8792;DHT22;4432;50.890;4.744;2022-10-22T16:10:51;18.30;99.90
8792;DHT22;4432;50.890;4.744;2022-10-22T16:13:18;18.20;99.90
8792;DHT22;4432;50.890;4.744;2022-10-22T16:15:46;18.10;99.90
8792;DHT22;4432;50.890;4.744;2022-10-22T16:18:11;18.00;99.90
8792;DHT22;4432;50.890;4.744;2022-10-22T16:20:38;17.90;99.90
8792;DHT22;4432;50.890;4.744;2022-10-22T16:23:04;17.80;99.90
8792;DHT22;4432;50.890;4.744;2022-10-22T16:25:30;17.60;99.90
8792;DHT22;4432;50.890;4.744;2022-10-22T16:27:55;17.40;99.90
8792;DHT22;4432;50.890;4.744;2022-10-22T16:30:21;17.20;99.90
8792;DHT22;4432;50.890;4.744;2022-10-22T16:32:47;17.00;99.90
8792;DHT22;4432;50.890;4.744;2022-10-22T16:35:12;16.80;99.90
8792;DHT22;4432;50.890;4.744;2022-10-22T16:37:38;16.70;99.90
8792;DHT22;4432;50.890;4.744;2022-10-22T16:40:04;16.60;99.90
8792;DHT22;4432;50.890;4.744;2022-10-22T16:42:30;16.50;99.90
8792;DHT22;4432;50.890;4.744;2022-10-22T16:44:56;16.40;99.90
8792;DHT22;4432;50.890;4.744;2022-10-22T16:47:21;16.40;99.90
8792;DHT22;4432;50.890;4.744;2022-10-22T16:49:47;16.40;99.90
8792;DHT22;4432;50.890;4.744;2022-10-22T16:52:13;16.30;99.90
8792;DHT22;4432;50.890;4.744;2022-10-22T16:54:38;16.30;99.90
8792;DHT22;4432;50.890;4.744;2022-10-22T16:57:04;16.20;99.90
8792;DHT22;4432;50.890;4.744;2022-10-22T16:59:30;16.10;99.90
8792;DHT22;4432;50.890;4.744;2022-10-22T17:01:56;16.10;99.90
8792;DHT22;4432;50.890;4.744;2022-10-22T17:04:21;16.10;99.90
8792;DHT22;4432;50.890;4.744;2022-10-22T17:06:48;16.10;99.90
8792;DHT22;4432;50.890;4.744;2022-10-22T17:09:13;16.10;99.90
8792;DHT22;4432;50.890;4.744;2022-10-22T17:11:39;16.10;99.90
8792;DHT22;4432;50.890;4.744;2022-10-22T17:14:05;16.00;99.90
8792;DHT22;4432;50.890;4.744;2022-10-22T17:16:31;15.90;99.90
8792;DHT22;4432;50.890;4.744;2022-10-22T17:18:57;15.70;99.90
8792;DHT22;4432;50.890;4.744;2022-10-22T17:21:23;15.50;99.90
8792;DHT22;4432;50.890;4.744;2022-10-22T17:23:56;15.50;99.90
8792;DHT22;4432;50.890;4.744;2022-10-22T17:26:23;15.40;99.90
8792;DHT22;4432;50.890;4.744;2022-10-22T17:28:50;15.30;99.90
8792;DHT22;4432;50.890;4.744;2022-10-22T17:31:34;15.30;99.90
8792;DHT22;4432;50.890;4.744;2022-10-22T17:34:04;15.30;99.90
8792;DHT22;4432;50.890;4.744;2022-10-22T17:36:30;15.30;99.90
8792;DHT22;4432;50.890;4.744;2022-10-22T17:38:58;15.40;99.90
8792;DHT22;4432;50.890;4.744;2022-10-22T17:41:29;15.40;99.90
8792;DHT22;4432;50.890;4.744;2022-10-22T17:43:56;15.50;99.90
8792;DHT22;4432;50.890;4.744;2022-10-22T17:46:25;15.50;99.90
8792;DHT22;4432;50.890;4.744;2022-10-22T17:49:01;15.60;99.90
8792;DHT22;4432;50.890;4.744;2022-10-22T17:51:28;15.60;99.90
8792;DHT22;4432;50.890;4.744;2022-10-22T17:53:54;15.50;99.90
8792;DHT22;4432;50.890;4.744;2022-10-22T17:56:22;15.50;99.90